sensor_id;sensor_type;location;lat;lon;timestamp;P1;durP1;ratioP1;P2;durP2;ratioP2
18125;SDS011;53956;52.442;13.284;2023-12-20T00:01:10;6.70;;;6.10;;
18125;SDS011;53956;52.442;13.284;2023-12-20T00:03:36;6.37;;;5.77;;
18125;SDS011;53956;52.442;13.284;2023-12-20T00:06:03;6.87;;;6.13;;
18125;SDS011;53956;52.442;13.284;2023-12-20T00:08:30;6.60;;;6.00;;
18125;SDS011;53956;52.442;13.284;2023-12-20T00:10:56;6.83;;;5.83;;
18125;SDS011;53956;52.442;13.284;2023-12-20T00:13:23;6.70;;;6.10;;
18125;SDS011;53956;52.442;13.284;2023-12-20T00:15:51;7.10;;;5.80;;
18125;SDS011;53956;52.442;13.284;2023-12-20T00:18:18;7.13;;;6.13;;
18125;SDS011;53956;52.442;13.284;2023-12-20T00:20:44;6.70;;;6.10;;
18125;SDS011;53956;52.442;13.284;2023-12-20T00:23:11;6.70;;;5.90;;
18125;SDS011;53956;52.442;13.284;2023-12-20T00:25:38;6.30;;;5.70;;
18125;SDS011;53956;52.442;13.284;2023-12-20T00:28:04;6.10;;;5.53;;
18125;SDS011;53956;52.442;13.284;2023-12-20T00:30:31;6.50;;;5.90;;
18125;SDS011;53956;52.442;13.284;2023-12-20T00:32:59;6.37;;;5.77;;
18125;SDS011;53956;52.442;13.284;2023-12-20T00:35:25;6.27;;;5.67;;
18125;SDS011;53956;52.442;13.284;2023-12-20T00:37:52;6.67;;;6.00;;
18125;SDS011;53956;52.442;13.284;2023-12-20T00:40:18;6.13;;;5.53;;
18125;SDS011;53956;52.442;13.284;2023-12-20T00:42:45;6.03;;;5.53;;
18125;SDS011;53956;52.442;13.284;2023-12-20T00:45:13;5.70;;;5.10;;
18125;SDS011;53956;52.442;13.284;2023-12-20T00:47:40;6.23;;;5.63;;
18125;SDS011;53956;52.442;13.284;2023-12-20T00:50:08;6.27;;;5.70;;
18125;SDS011;53956;52.442;13.284;2023-12-20T00:52:35;5.83;;;5.27;;
18125;SDS011;53956;52.442;13.284;2023-12-20T00:55:02;6.60;;;6.00;;
18125;SDS011;53956;52.442;13.284;2023-12-20T00:57:29;6.10;;;5.47;;
18125;SDS011;53956;52.442;13.284;2023-12-20T00:59:56;6.00;;;5.40;;
18125;SDS011;53956;52.442;13.284;2023-12-20T01:02:23;5.97;;;5.47;;
18125;SDS011;53956;52.442;13.284;2023-12-20T01:04:49;6.07;;;5.47;;
18125;SDS011;53956;52.442;13.284;2023-12-20T01:07:17;5.90;;;5.40;;
18125;SDS011;53956;52.442;13.284;2023-12-20T01:09:44;6.50;;;5.90;;
18125;SDS011;53956;52.442;13.284;2023-12-20T01:12:10;6.23;;;5.73;;
18125;SDS011;53956;52.442;13.284;2023-12-20T01:14:37;6.00;;;5.40;;
18125;SDS011;53956;52.442;13.284;2023-12-20T01:17:04;5.93;;;5.43;;
18125;SDS011;53956;52.442;13.284;2023-12-20T01:19:31;6.10;;;5.60;;
18125;SDS011;53956;52.442;13.284;2023-12-20T01:21:57;5.97;;;5.47;;
18125;SDS011;53956;52.442;13.284;2023-12-20T01:24:25;6.27;;;5.67;;
18125;SDS011;53956;52.442;13.284;2023-12-20T01:26:52;5.73;;;5.23;;
18125;SDS011;53956;52.442;13.284;2023-12-20T01:29:18;5.70;;;5.20;;
18125;SDS011;53956;52.442;13.284;2023-12-20T01:31:45;5.90;;;5.40;;
18125;SDS011;53956;52.442;13.284;2023-12-20T01:34:11;6.00;;;5.50;;
18125;SDS011;53956;52.442;13.284;2023-12-20T01:36:38;5.90;;;5.30;;
18125;SDS011;53956;52.442;13.284;2023-12-20T01:39:05;6.17;;;5.67;;
18125;SDS011;53956;52.442;13.284;2023-12-20T01:41:33;6.30;;;5.70;;
18125;SDS011;53956;52.442;13.284;2023-12-20T01:43:59;5.30;;;4.90;;
18125;SDS011;53956;52.442;13.284;2023-12-20T01:46:26;5.40;;;5.00;;
18125;SDS011;53956;52.442;13.284;2023-12-20T01:48:53;5.30;;;4.90;;
18125;SDS011;53956;52.442;13.284;2023-12-20T01:51:19;5.37;;;4.97;;
18125;SDS011;53956;52.442;13.284;2023-12-20T01:53:47;6.00;;;5.50;;
18125;SDS011;53956;52.442;13.284;2023-12-20T01:56:14;6.10;;;5.50;;
18125;SDS011;53956;52.442;13.284;2023-12-20T01:58:44;6.57;;;5.97;;
18125;SDS011;53956;52.442;13.284;2023-12-20T02:01:12;5.97;;;5.37;;
18125;SDS011;53956;52.442;13.284;2023-12-20T02:03:39;6.13;;;5.63;;
18125;SDS011;53956;52.442;13.284;2023-12-20T02:06:07;6.90;;;6.20;;
18125;SDS011;53956;52.442;13.284;2023-12-20T02:08:34;6.50;;;5.90;;
18125;SDS011;53956;52.442;13.284;2023-12-20T02:11:00;6.80;;;6.10;;
18125;SDS011;53956;52.442;13.284;2023-12-20T02:13:27;6.57;;;5.97;;
18125;SDS011;53956;52.442;13.284;2023-12-20T02:15:55;7.03;;;6.43;;
18125;SDS011;53956;52.442;13.284;2023-12-20T02:18:22;7.00;;;6.40;;
18125;SDS011;53956;52.442;13.284;2023-12-20T02:23:41;6.93;;;6.10;;
18125;SDS011;53956;52.442;13.284;2023-12-20T02:26:07;9.03;;;6.47;;
18125;SDS011;53956;52.442;13.284;2023-12-20T02:28:34;7.47;;;6.73;;
18125;SDS011;53956;52.442;13.284;2023-12-20T02:31:02;7.90;;;7.10;;
18125;SDS011;53956;52.442;13.284;2023-12-20T02:33:28;8.10;;;7.30;;
18125;SDS011;53956;52.442;13.284;2023-12-20T02:35:55;7.93;;;7.13;;
18125;SDS011;53956;52.442;13.284;2023-12-20T02:38:21;8.07;;;7.20;;
18125;SDS011;53956;52.442;13.284;2023-12-20T02:40:50;8.50;;;7.70;;
18125;SDS011;53956;52.442;13.284;2023-12-20T02:43:16;8.17;;;7.37;;
18125;SDS011;53956;52.442;13.284;2023-12-20T02:45:43;10.03;;;8.23;;
18125;SDS011;53956;52.442;13.284;2023-12-20T02:48:09;9.50;;;8.50;;
18125;SDS011;53956;52.442;13.284;2023-12-20T02:50:36;10.10;;;9.00;;
18125;SDS011;53956;52.442;13.284;2023-12-20T02:53:02;10.53;;;8.80;;
18125;SDS011;53956;52.442;13.284;2023-12-20T02:55:29;9.97;;;8.50;;
18125;SDS011;53956;52.442;13.284;2023-12-20T02:57:57;10.87;;;8.67;;
18125;SDS011;53956;52.442;13.284;2023-12-20T03:00:24;11.30;;;9.10;;
18125;SDS011;53956;52.442;13.284;2023-12-20T03:02:51;10.53;;;8.93;;
18125;SDS011;53956;52.442;13.284;2023-12-20T03:05:17;10.37;;;8.87;;
18125;SDS011;53956;52.442;13.284;2023-12-20T03:07:44;9.97;;;8.87;;
18125;SDS011;53956;52.442;13.284;2023-12-20T03:10:17;9.83;;;8.40;;
18125;SDS011;53956;52.442;13.284;2023-12-20T03:14:11;10.13;;;8.73;;
18125;SDS011;53956;52.442;13.284;2023-12-20T03:16:46;11.63;;;9.37;;
18125;SDS011;53956;52.442;13.284;2023-12-20T03:19:33;10.93;;;8.47;;
18125;SDS011;53956;52.442;13.284;2023-12-20T03:21:59;11.00;;;8.87;;
18125;SDS011;53956;52.442;13.284;2023-12-20T03:24:34;11.60;;;9.20;;
18125;SDS011;53956;52.442;13.284;2023-12-20T03:27:15;10.73;;;9.03;;
18125;SDS011;53956;52.442;13.284;2023-12-20T03:29:43;11.80;;;9.57;;
18125;SDS011;53956;52.442;13.284;2023-12-20T03:32:09;11.57;;;9.13;;
18125;SDS011;53956;52.442;13.284;2023-12-20T03:34:36;11.13;;;8.63;;
18125;SDS011;53956;52.442;13.284;2023-12-20T03:37:03;11.03;;;8.63;;
18125;SDS011;53956;52.442;13.284;2023-12-20T03:39:29;10.57;;;8.70;;
18125;SDS011;53956;52.442;13.284;2023-12-20T03:41:56;12.90;;;8.97;;
18125;SDS011;53956;52.442;13.284;2023-12-20T03:44:22;13.87;;;9.30;;
18125;SDS011;53956;52.442;13.284;2023-12-20T03:46:50;12.53;;;9.30;;
18125;SDS011;53956;52.442;13.284;2023-12-20T03:49:17;13.30;;;9.37;;
18125;SDS011;53956;52.442;13.284;2023-12-20T03:51:43;12.77;;;9.23;;
18125;SDS011;53956;52.442;13.284;2023-12-20T03:54:10;10.93;;;8.10;;
18125;SDS011;53956;52.442;13.284;2023-12-20T03:56:37;11.47;;;8.43;;
18125;SDS011;53956;52.442;13.284;2023-12-20T03:59:04;12.43;;;8.10;;
18125;SDS011;53956;52.442;13.284;2023-12-20T04:01:30;11.03;;;7.27;;
18125;SDS011;53956;52.442;13.284;2023-12-20T04:03:58;11.73;;;7.63;;
18125;SDS011;53956;52.442;13.284;2023-12-20T04:06:25;12.37;;;7.03;;
18125;SDS011;53956;52.442;13.284;2023-12-20T04:08:51;11.27;;;7.17;;
18125;SDS011;53956;52.442;13.284;2023-12-20T04:11:18;9.83;;;7.17;;
18125;SDS011;53956;52.442;13.284;2023-12-20T04:13:44;12.50;;;7.50;;
18125;SDS011;53956;52.442;13.284;2023-12-20T04:16:11;9.90;;;7.20;;
18125;SDS011;53956;52.442;13.284;2023-12-20T04:18:38;9.87;;;6.57;;
18125;SDS011;53956;52.442;13.284;2023-12-20T04:21:06;10.27;;;6.60;;
18125;SDS011;53956;52.442;13.284;2023-12-20T04:23:32;8.17;;;6.03;;
18125;SDS011;53956;52.442;13.284;2023-12-20T04:25:59;8.70;;;5.40;;
18125;SDS011;53956;52.442;13.284;2023-12-20T04:28:26;7.57;;;5.07;;
18125;SDS011;53956;52.442;13.284;2023-12-20T04:30:55;12.23;;;5.60;;
18125;SDS011;53956;52.442;13.284;2023-12-20T04:33:22;10.00;;;5.20;;
18125;SDS011;53956;52.442;13.284;2023-12-20T04:35:48;11.80;;;5.97;;
18125;SDS011;53956;52.442;13.284;2023-12-20T04:38:16;10.40;;;5.30;;
18125;SDS011;53956;52.442;13.284;2023-12-20T04:40:43;10.80;;;5.50;;
18125;SDS011;53956;52.442;13.284;2023-12-20T04:43:09;9.83;;;5.30;;
18125;SDS011;53956;52.442;13.284;2023-12-20T04:45:36;9.97;;;5.10;;
18125;SDS011;53956;52.442;13.284;2023-12-20T04:48:03;10.53;;;5.10;;
18125;SDS011;53956;52.442;13.284;2023-12-20T04:50:30;9.23;;;4.60;;
18125;SDS011;53956;52.442;13.284;2023-12-20T04:52:56;11.47;;;4.43;;
18125;SDS011;53956;52.442;13.284;2023-12-20T04:55:24;10.07;;;4.07;;
18125;SDS011;53956;52.442;13.284;2023-12-20T04:57:51;10.57;;;4.27;;
18125;SDS011;53956;52.442;13.284;2023-12-20T05:00:18;10.53;;;3.80;;
18125;SDS011;53956;52.442;13.284;2023-12-20T05:02:44;9.17;;;4.00;;
18125;SDS011;53956;52.442;13.284;2023-12-20T05:05:11;8.83;;;3.33;;
18125;SDS011;53956;52.442;13.284;2023-12-20T05:07:37;10.90;;;3.80;;
18125;SDS011;53956;52.442;13.284;2023-12-20T05:10:04;9.33;;;3.30;;
18125;SDS011;53956;52.442;13.284;2023-12-20T05:12:34;6.23;;;3.40;;
18125;SDS011;53956;52.442;13.284;2023-12-20T05:15:01;9.63;;;3.60;;
18125;SDS011;53956;52.442;13.284;2023-12-20T05:17:28;8.63;;;3.27;;
18125;SDS011;53956;52.442;13.284;2023-12-20T05:19:54;10.40;;;3.63;;
18125;SDS011;53956;52.442;13.284;2023-12-20T05:22:21;11.67;;;3.70;;
18125;SDS011;53956;52.442;13.284;2023-12-20T05:24:47;11.93;;;3.60;;
18125;SDS011;53956;52.442;13.284;2023-12-20T05:27:14;11.40;;;3.27;;
18125;SDS011;53956;52.442;13.284;2023-12-20T05:29:42;8.97;;;3.93;;
18125;SDS011;53956;52.442;13.284;2023-12-20T05:32:09;9.47;;;3.27;;
18125;SDS011;53956;52.442;13.284;2023-12-20T05:34:36;11.57;;;3.23;;
18125;SDS011;53956;52.442;13.284;2023-12-20T05:37:03;12.13;;;4.40;;
18125;SDS011;53956;52.442;13.284;2023-12-20T05:39:29;12.97;;;4.03;;
18125;SDS011;53956;52.442;13.284;2023-12-20T05:41:56;10.03;;;3.80;;
18125;SDS011;53956;52.442;13.284;2023-12-20T05:44:23;12.97;;;3.43;;
18125;SDS011;53956;52.442;13.284;2023-12-20T05:46:51;13.47;;;3.60;;
18125;SDS011;53956;52.442;13.284;2023-12-20T05:49:17;8.97;;;3.77;;
18125;SDS011;53956;52.442;13.284;2023-12-20T05:51:44;13.77;;;3.40;;
18125;SDS011;53956;52.442;13.284;2023-12-20T05:54:11;11.40;;;3.40;;
18125;SDS011;53956;52.442;13.284;2023-12-20T05:56:37;13.50;;;3.40;;
18125;SDS011;53956;52.442;13.284;2023-12-20T05:59:04;11.97;;;3.57;;
18125;SDS011;53956;52.442;13.284;2023-12-20T06:01:30;10.20;;;3.47;;
18125;SDS011;53956;52.442;13.284;2023-12-20T06:03:58;8.80;;;3.70;;
18125;SDS011;53956;52.442;13.284;2023-12-20T06:06:25;8.40;;;3.00;;
18125;SDS011;53956;52.442;13.284;2023-12-20T06:08:51;8.33;;;3.40;;
18125;SDS011;53956;52.442;13.284;2023-12-20T06:11:18;12.83;;;4.00;;
18125;SDS011;53956;52.442;13.284;2023-12-20T06:13:44;12.27;;;3.70;;
18125;SDS011;53956;52.442;13.284;2023-12-20T06:16:11;7.97;;;3.33;;
18125;SDS011;53956;52.442;13.284;2023-12-20T06:18:38;7.13;;;3.40;;
18125;SDS011;53956;52.442;13.284;2023-12-20T06:21:06;12.23;;;3.50;;
18125;SDS011;53956;52.442;13.284;2023-12-20T06:23:33;7.60;;;3.10;;
18125;SDS011;53956;52.442;13.284;2023-12-20T06:25:59;12.63;;;3.10;;
18125;SDS011;53956;52.442;13.284;2023-12-20T06:28:26;11.03;;;3.80;;
18125;SDS011;53956;52.442;13.284;2023-12-20T06:30:53;8.37;;;3.70;;
18125;SDS011;53956;52.442;13.284;2023-12-20T06:33:20;5.37;;;3.77;;
18125;SDS011;53956;52.442;13.284;2023-12-20T06:35:47;12.30;;;4.20;;
18125;SDS011;53956;52.442;13.284;2023-12-20T06:38:15;13.70;;;3.83;;
18125;SDS011;53956;52.442;13.284;2023-12-20T06:40:43;10.90;;;3.90;;
18125;SDS011;53956;52.442;13.284;2023-12-20T06:43:10;9.07;;;3.50;;
18125;SDS011;53956;52.442;13.284;2023-12-20T06:45:38;9.23;;;3.87;;
18125;SDS011;53956;52.442;13.284;2023-12-20T06:48:05;10.67;;;3.60;;
18125;SDS011;53956;52.442;13.284;2023-12-20T06:50:32;8.73;;;3.57;;
18125;SDS011;53956;52.442;13.284;2023-12-20T06:52:59;8.80;;;3.73;;
18125;SDS011;53956;52.442;13.284;2023-12-20T06:55:33;7.63;;;3.67;;
18125;SDS011;53956;52.442;13.284;2023-12-20T06:58:00;11.03;;;4.27;;
18125;SDS011;53956;52.442;13.284;2023-12-20T07:00:27;10.13;;;3.67;;
18125;SDS011;53956;52.442;13.284;2023-12-20T07:02:54;7.63;;;3.87;;
18125;SDS011;53956;52.442;13.284;2023-12-20T07:05:20;12.53;;;3.93;;
18125;SDS011;53956;52.442;13.284;2023-12-20T07:07:47;12.03;;;3.70;;
18125;SDS011;53956;52.442;13.284;2023-12-20T07:10:14;10.83;;;3.73;;
18125;SDS011;53956;52.442;13.284;2023-12-20T07:12:42;8.10;;;3.83;;
18125;SDS011;53956;52.442;13.284;2023-12-20T07:15:09;9.93;;;3.87;;
18125;SDS011;53956;52.442;13.284;2023-12-20T07:17:36;11.17;;;3.97;;
18125;SDS011;53956;52.442;13.284;2023-12-20T07:20:03;7.90;;;3.80;;
18125;SDS011;53956;52.442;13.284;2023-12-20T07:22:34;10.57;;;4.10;;
18125;SDS011;53956;52.442;13.284;2023-12-20T07:25:01;11.10;;;4.30;;
18125;SDS011;53956;52.442;13.284;2023-12-20T07:27:28;10.90;;;4.03;;
18125;SDS011;53956;52.442;13.284;2023-12-20T07:29:57;11.07;;;3.53;;
18125;SDS011;53956;52.442;13.284;2023-12-20T07:32:23;12.67;;;3.70;;
18125;SDS011;53956;52.442;13.284;2023-12-20T07:34:50;10.73;;;3.70;;
18125;SDS011;53956;52.442;13.284;2023-12-20T07:37:17;10.83;;;3.20;;
18125;SDS011;53956;52.442;13.284;2023-12-20T07:39:43;11.73;;;3.70;;
18125;SDS011;53956;52.442;13.284;2023-12-20T07:42:10;10.27;;;3.13;;
18125;SDS011;53956;52.442;13.284;2023-12-20T07:44:36;11.67;;;3.50;;
18125;SDS011;53956;52.442;13.284;2023-12-20T07:47:04;9.07;;;2.83;;
18125;SDS011;53956;52.442;13.284;2023-12-20T07:49:31;8.53;;;3.20;;
18125;SDS011;53956;52.442;13.284;2023-12-20T07:51:58;8.00;;;3.33;;
18125;SDS011;53956;52.442;13.284;2023-12-20T07:54:24;12.03;;;3.60;;
18125;SDS011;53956;52.442;13.284;2023-12-20T07:56:51;15.40;;;4.17;;
18125;SDS011;53956;52.442;13.284;2023-12-20T07:59:18;7.50;;;3.50;;
18125;SDS011;53956;52.442;13.284;2023-12-20T08:01:44;8.60;;;3.87;;
18125;SDS011;53956;52.442;13.284;2023-12-20T08:04:12;7.70;;;3.90;;
18125;SDS011;53956;52.442;13.284;2023-12-20T08:06:39;15.93;;;4.10;;
18125;SDS011;53956;52.442;13.284;2023-12-20T08:09:06;9.63;;;3.73;;
18125;SDS011;53956;52.442;13.284;2023-12-20T08:11:33;10.27;;;3.20;;
18125;SDS011;53956;52.442;13.284;2023-12-20T08:13:59;8.40;;;3.10;;
18125;SDS011;53956;52.442;13.284;2023-12-20T08:16:26;8.53;;;3.50;;
18125;SDS011;53956;52.442;13.284;2023-12-20T08:18:53;7.00;;;3.33;;
18125;SDS011;53956;52.442;13.284;2023-12-20T08:21:20;10.50;;;3.70;;
18125;SDS011;53956;52.442;13.284;2023-12-20T08:23:48;9.17;;;3.43;;
18125;SDS011;53956;52.442;13.284;2023-12-20T08:26:14;8.93;;;3.13;;
18125;SDS011;53956;52.442;13.284;2023-12-20T08:28:46;9.47;;;3.17;;
18125;SDS011;53956;52.442;13.284;2023-12-20T08:31:13;11.33;;;4.00;;
18125;SDS011;53956;52.442;13.284;2023-12-20T08:33:40;10.97;;;3.30;;
18125;SDS011;53956;52.442;13.284;2023-12-20T08:36:07;8.87;;;3.40;;
18125;SDS011;53956;52.442;13.284;2023-12-20T08:38:35;12.77;;;3.80;;
18125;SDS011;53956;52.442;13.284;2023-12-20T08:41:02;14.37;;;3.43;;
18125;SDS011;53956;52.442;13.284;2023-12-20T08:43:30;6.50;;;3.23;;
18125;SDS011;53956;52.442;13.284;2023-12-20T08:45:56;11.03;;;3.30;;
18125;SDS011;53956;52.442;13.284;2023-12-20T08:48:23;9.93;;;3.67;;
18125;SDS011;53956;52.442;13.284;2023-12-20T08:50:50;8.50;;;3.13;;
18125;SDS011;53956;52.442;13.284;2023-12-20T08:53:17;7.07;;;3.10;;
18125;SDS011;53956;52.442;13.284;2023-12-20T08:55:45;10.07;;;3.80;;
18125;SDS011;53956;52.442;13.284;2023-12-20T08:58:12;12.00;;;3.37;;
18125;SDS011;53956;52.442;13.284;2023-12-20T09:00:39;9.73;;;3.70;;
18125;SDS011;53956;52.442;13.284;2023-12-20T09:03:06;13.60;;;3.90;;
18125;SDS011;53956;52.442;13.284;2023-12-20T09:05:33;9.93;;;3.40;;
18125;SDS011;53956;52.442;13.284;2023-12-20T09:07:59;9.80;;;3.30;;
18125;SDS011;53956;52.442;13.284;2023-12-20T09:10:26;8.63;;;3.43;;
18125;SDS011;53956;52.442;13.284;2023-12-20T09:12:54;6.60;;;3.27;;
18125;SDS011;53956;52.442;13.284;2023-12-20T09:15:22;13.80;;;3.63;;
18125;SDS011;53956;52.442;13.284;2023-12-20T09:17:49;11.07;;;3.80;;
18125;SDS011;53956;52.442;13.284;2023-12-20T09:20:15;15.37;;;3.87;;
18125;SDS011;53956;52.442;13.284;2023-12-20T09:22:42;8.57;;;3.23;;
18125;SDS011;53956;52.442;13.284;2023-12-20T09:25:09;9.27;;;3.30;;
18125;SDS011;53956;52.442;13.284;2023-12-20T09:27:36;7.47;;;3.33;;
18125;SDS011;53956;52.442;13.284;2023-12-20T09:30:04;13.77;;;3.63;;
18125;SDS011;53956;52.442;13.284;2023-12-20T09:32:32;10.33;;;3.53;;
18125;SDS011;53956;52.442;13.284;2023-12-20T09:34:58;9.53;;;3.27;;
18125;SDS011;53956;52.442;13.284;2023-12-20T09:37:26;12.47;;;3.43;;
18125;SDS011;53956;52.442;13.284;2023-12-20T09:39:53;10.63;;;3.50;;
18125;SDS011;53956;52.442;13.284;2023-12-20T09:42:21;12.63;;;3.50;;
18125;SDS011;53956;52.442;13.284;2023-12-20T09:44:53;11.27;;;3.40;;
18125;SDS011;53956;52.442;13.284;2023-12-20T09:47:22;12.17;;;3.53;;
18125;SDS011;53956;52.442;13.284;2023-12-20T09:49:49;9.87;;;3.67;;
18125;SDS011;53956;52.442;13.284;2023-12-20T09:52:17;6.83;;;3.47;;
18125;SDS011;53956;52.442;13.284;2023-12-20T09:54:44;12.10;;;3.90;;
18125;SDS011;53956;52.442;13.284;2023-12-20T09:57:13;11.90;;;3.83;;
18125;SDS011;53956;52.442;13.284;2023-12-20T09:59:40;9.77;;;3.47;;
18125;SDS011;53956;52.442;13.284;2023-12-20T10:02:07;10.57;;;3.93;;
18125;SDS011;53956;52.442;13.284;2023-12-20T10:04:40;9.10;;;3.20;;
18125;SDS011;53956;52.442;13.284;2023-12-20T10:07:12;14.67;;;4.00;;
18125;SDS011;53956;52.442;13.284;2023-12-20T10:09:38;9.70;;;3.60;;
18125;SDS011;53956;52.442;13.284;2023-12-20T10:12:06;9.03;;;3.57;;
18125;SDS011;53956;52.442;13.284;2023-12-20T10:14:33;11.53;;;3.90;;
18125;SDS011;53956;52.442;13.284;2023-12-20T10:17:03;31.57;;;4.70;;
18125;SDS011;53956;52.442;13.284;2023-12-20T10:19:31;17.07;;;4.10;;
18125;SDS011;53956;52.442;13.284;2023-12-20T10:22:00;10.63;;;3.57;;
18125;SDS011;53956;52.442;13.284;2023-12-20T10:24:28;11.80;;;3.83;;
18125;SDS011;53956;52.442;13.284;2023-12-20T10:27:01;11.50;;;3.47;;
18125;SDS011;53956;52.442;13.284;2023-12-20T10:29:31;13.00;;;3.93;;
18125;SDS011;53956;52.442;13.284;2023-12-20T10:31:58;13.97;;;4.63;;
18125;SDS011;53956;52.442;13.284;2023-12-20T10:34:24;14.77;;;3.90;;
18125;SDS011;53956;52.442;13.284;2023-12-20T10:36:51;13.87;;;3.50;;
18125;SDS011;53956;52.442;13.284;2023-12-20T10:39:20;12.43;;;3.97;;
18125;SDS011;53956;52.442;13.284;2023-12-20T10:41:47;11.37;;;3.60;;
18125;SDS011;53956;52.442;13.284;2023-12-20T10:44:14;12.27;;;3.67;;
18125;SDS011;53956;52.442;13.284;2023-12-20T10:46:41;12.70;;;3.77;;
18125;SDS011;53956;52.442;13.284;2023-12-20T10:49:14;9.80;;;3.60;;
18125;SDS011;53956;52.442;13.284;2023-12-20T10:51:43;12.50;;;3.97;;
18125;SDS011;53956;52.442;13.284;2023-12-20T10:54:12;10.07;;;4.13;;
18125;SDS011;53956;52.442;13.284;2023-12-20T10:56:39;9.10;;;3.90;;
18125;SDS011;53956;52.442;13.284;2023-12-20T10:59:06;13.53;;;3.87;;
18125;SDS011;53956;52.442;13.284;2023-12-20T11:01:37;12.97;;;4.17;;
18125;SDS011;53956;52.442;13.284;2023-12-20T11:04:05;12.20;;;3.70;;
18125;SDS011;53956;52.442;13.284;2023-12-20T11:06:38;12.37;;;3.93;;
18125;SDS011;53956;52.442;13.284;2023-12-20T11:09:11;8.33;;;3.40;;
18125;SDS011;53956;52.442;13.284;2023-12-20T11:11:50;18.40;;;4.40;;
18125;SDS011;53956;52.442;13.284;2023-12-20T11:14:25;10.53;;;4.00;;
18125;SDS011;53956;52.442;13.284;2023-12-20T11:17:07;14.30;;;4.37;;
18125;SDS011;53956;52.442;13.284;2023-12-20T11:19:35;11.43;;;4.23;;
18125;SDS011;53956;52.442;13.284;2023-12-20T11:22:03;13.13;;;3.77;;
18125;SDS011;53956;52.442;13.284;2023-12-20T11:24:31;15.13;;;4.23;;
18125;SDS011;53956;52.442;13.284;2023-12-20T11:27:00;9.50;;;3.60;;
18125;SDS011;53956;52.442;13.284;2023-12-20T11:29:31;13.37;;;3.90;;
18125;SDS011;53956;52.442;13.284;2023-12-20T11:31:59;13.77;;;3.90;;
18125;SDS011;53956;52.442;13.284;2023-12-20T11:34:27;10.10;;;3.70;;
18125;SDS011;53956;52.442;13.284;2023-12-20T11:36:58;12.27;;;4.00;;
18125;SDS011;53956;52.442;13.284;2023-12-20T11:39:25;10.07;;;4.00;;
18125;SDS011;53956;52.442;13.284;2023-12-20T11:41:54;11.30;;;3.60;;
18125;SDS011;53956;52.442;13.284;2023-12-20T11:44:23;12.77;;;3.70;;
18125;SDS011;53956;52.442;13.284;2023-12-20T11:46:51;13.57;;;4.33;;
18125;SDS011;53956;52.442;13.284;2023-12-20T11:49:22;9.80;;;3.97;;
18125;SDS011;53956;52.442;13.284;2023-12-20T11:51:49;13.97;;;4.20;;
18125;SDS011;53956;52.442;13.284;2023-12-20T11:54:16;13.53;;;3.97;;
18125;SDS011;53956;52.442;13.284;2023-12-20T11:56:43;8.43;;;3.50;;
18125;SDS011;53956;52.442;13.284;2023-12-20T11:59:09;7.97;;;3.70;;
18125;SDS011;53956;52.442;13.284;2023-12-20T12:01:37;13.60;;;3.80;;
18125;SDS011;53956;52.442;13.284;2023-12-20T12:04:04;12.97;;;3.90;;
18125;SDS011;53956;52.442;13.284;2023-12-20T12:06:31;9.70;;;3.70;;
18125;SDS011;53956;52.442;13.284;2023-12-20T12:08:58;10.30;;;3.40;;
18125;SDS011;53956;52.442;13.284;2023-12-20T12:11:24;9.23;;;3.63;;
18125;SDS011;53956;52.442;13.284;2023-12-20T12:13:51;7.53;;;3.47;;
18125;SDS011;53956;52.442;13.284;2023-12-20T12:16:18;8.23;;;3.87;;
18125;SDS011;53956;52.442;13.284;2023-12-20T12:18:54;9.50;;;3.67;;
18125;SDS011;53956;52.442;13.284;2023-12-20T12:21:21;11.30;;;3.70;;
18125;SDS011;53956;52.442;13.284;2023-12-20T12:23:48;8.40;;;3.67;;
18125;SDS011;53956;52.442;13.284;2023-12-20T12:26:14;10.27;;;3.93;;
18125;SDS011;53956;52.442;13.284;2023-12-20T12:28:41;8.40;;;4.07;;
18125;SDS011;53956;52.442;13.284;2023-12-20T12:31:08;10.90;;;4.00;;
18125;SDS011;53956;52.442;13.284;2023-12-20T12:33:38;8.07;;;3.83;;
18125;SDS011;53956;52.442;13.284;2023-12-20T12:36:07;9.53;;;4.07;;
18125;SDS011;53956;52.442;13.284;2023-12-20T12:38:34;10.03;;;3.90;;
18125;SDS011;53956;52.442;13.284;2023-12-20T12:41:01;8.23;;;3.77;;
18125;SDS011;53956;52.442;13.284;2023-12-20T12:43:27;12.47;;;4.23;;
18125;SDS011;53956;52.442;13.284;2023-12-20T12:45:54;11.83;;;4.27;;
18125;SDS011;53956;52.442;13.284;2023-12-20T12:48:21;9.87;;;3.67;;
18125;SDS011;53956;52.442;13.284;2023-12-20T12:50:48;9.67;;;3.70;;
18125;SDS011;53956;52.442;13.284;2023-12-20T12:53:18;7.13;;;3.97;;
18125;SDS011;53956;52.442;13.284;2023-12-20T12:55:44;9.30;;;4.03;;
18125;SDS011;53956;52.442;13.284;2023-12-20T12:58:11;10.33;;;4.40;;
18125;SDS011;53956;52.442;13.284;2023-12-20T13:00:38;14.13;;;4.30;;
18125;SDS011;53956;52.442;13.284;2023-12-20T13:03:04;9.03;;;4.73;;
18125;SDS011;53956;52.442;13.284;2023-12-20T13:05:31;9.20;;;4.40;;
18125;SDS011;53956;52.442;13.284;2023-12-20T13:07:58;12.63;;;4.30;;
18125;SDS011;53956;52.442;13.284;2023-12-20T13:10:26;11.37;;;4.87;;
18125;SDS011;53956;52.442;13.284;2023-12-20T13:12:52;8.80;;;4.23;;
18125;SDS011;53956;52.442;13.284;2023-12-20T13:15:19;12.10;;;4.80;;
18125;SDS011;53956;52.442;13.284;2023-12-20T13:17:45;9.13;;;4.23;;
18125;SDS011;53956;52.442;13.284;2023-12-20T13:20:12;8.73;;;4.50;;
18125;SDS011;53956;52.442;13.284;2023-12-20T13:22:39;11.83;;;5.23;;
18125;SDS011;53956;52.442;13.284;2023-12-20T13:25:05;9.80;;;4.10;;
18125;SDS011;53956;52.442;13.284;2023-12-20T13:27:34;15.23;;;4.77;;
18125;SDS011;53956;52.442;13.284;2023-12-20T13:30:00;9.93;;;4.73;;
18125;SDS011;53956;52.442;13.284;2023-12-20T13:32:28;7.97;;;4.50;;
18125;SDS011;53956;52.442;13.284;2023-12-20T13:34:54;6.90;;;3.73;;
18125;SDS011;53956;52.442;13.284;2023-12-20T13:37:21;5.27;;;2.90;;
18125;SDS011;53956;52.442;13.284;2023-12-20T13:39:48;6.33;;;3.40;;
18125;SDS011;53956;52.442;13.284;2023-12-20T13:42:14;8.43;;;4.00;;
18125;SDS011;53956;52.442;13.284;2023-12-20T13:44:42;6.83;;;3.97;;
18125;SDS011;53956;52.442;13.284;2023-12-20T13:47:09;5.63;;;3.53;;
18125;SDS011;53956;52.442;13.284;2023-12-20T13:49:35;3.40;;;2.80;;
18125;SDS011;53956;52.442;13.284;2023-12-20T13:52:02;4.10;;;2.77;;
18125;SDS011;53956;52.442;13.284;2023-12-20T13:54:29;4.90;;;2.60;;
18125;SDS011;53956;52.442;13.284;2023-12-20T13:56:56;3.40;;;2.40;;
18125;SDS011;53956;52.442;13.284;2023-12-20T13:59:23;4.07;;;2.27;;
18125;SDS011;53956;52.442;13.284;2023-12-20T14:01:50;2.83;;;2.20;;
18125;SDS011;53956;52.442;13.284;2023-12-20T14:04:17;2.67;;;1.90;;
18125;SDS011;53956;52.442;13.284;2023-12-20T14:06:44;3.23;;;2.00;;
18125;SDS011;53956;52.442;13.284;2023-12-20T14:09:10;2.40;;;2.10;;
18125;SDS011;53956;52.442;13.284;2023-12-20T14:11:37;2.63;;;1.67;;
18125;SDS011;53956;52.442;13.284;2023-12-20T14:14:06;3.93;;;2.33;;
18125;SDS011;53956;52.442;13.284;2023-12-20T14:16:33;3.10;;;1.90;;
18125;SDS011;53956;52.442;13.284;2023-12-20T14:19:01;2.53;;;1.77;;
18125;SDS011;53956;52.442;13.284;2023-12-20T14:21:28;4.13;;;2.10;;
18125;SDS011;53956;52.442;13.284;2023-12-20T14:23:55;2.13;;;1.93;;
18125;SDS011;53956;52.442;13.284;2023-12-20T14:26:21;3.10;;;1.90;;
18125;SDS011;53956;52.442;13.284;2023-12-20T14:28:48;2.23;;;2.03;;
18125;SDS011;53956;52.442;13.284;2023-12-20T14:31:14;2.40;;;2.00;;
18125;SDS011;53956;52.442;13.284;2023-12-20T14:33:41;1.90;;;1.80;;